Time;durP1;ratioP1;P1;durP2;ratioP2;P2;SDS_P1;SDS_P2;PMS_P1;PMS_P2;Temp;Humidity;BMP_temperature;BMP_pressure;BME280_temperature;BME280_humidity;BME280_pressure;Samples;Min_cycle;Max_cycle;Signal;HPM_P1;HPM_P2
2024/04/21 00:00:08;;;;;;;5.97;3.10;;;3.70;99.90;;;;;;5342915;26;20399;-78
2024/04/21 00:02:34;;;;;;;3.80;3.13;;;3.80;99.90;;;;;;5360769;26;20673;-78
2024/04/21 00:05:00;;;;;;;3.87;3.37;;;3.90;99.90;;;;;;5342131;26;20882;-78
2024/04/21 00:07:25;;;;;;;4.63;3.47;;;3.70;99.90;;;;;;5357610;26;20243;-77
2024/04/21 00:09:51;;;;;;;4.23;3.53;;;3.80;99.90;;;;;;5357634;26;20687;-78
2024/04/21 00:12:17;;;;;;;4.20;3.30;;;3.70;99.90;;;;;;5350388;26;20244;-78
2024/04/21 00:14:42;;;;;;;4.80;3.67;;;3.50;99.90;;;;;;5350925;26;20244;-78
2024/04/21 00:17:08;;;;;;;4.23;3.30;;;3.40;99.90;;;;;;5343179;26;20695;-78
2024/04/21 00:19:34;;;;;;;3.87;3.00;;;3.30;99.90;;;;;;5362097;26;20230;-78
2024/04/21 00:21:59;;;;;;;5.27;3.43;;;3.20;99.90;;;;;;5337265;26;20241;-78
2024/04/21 00:24:28;;;;;;;4.40;3.73;;;3.20;99.90;;;;;;5362004;26;20349;-78
2024/04/21 00:26:57;;;;;;;4.27;3.33;;;3.20;99.90;;;;;;5371846;26;20271;-78
2024/04/21 00:29:23;;;;;;;5.47;3.23;;;3.30;99.90;;;;;;5348358;26;20306;-77
2024/04/21 00:31:49;;;;;;;4.50;3.23;;;3.30;99.90;;;;;;5337927;26;20297;-78
2024/04/21 00:34:15;;;;;;;5.33;3.67;;;3.30;99.90;;;;;;5339055;26;20249;-78
2024/04/21 00:36:41;;;;;;;4.53;3.13;;;3.40;99.90;;;;;;5351697;26;20525;-78
2024/04/21 00:39:07;;;;;;;8.67;3.10;;;3.30;99.90;;;;;;5350965;26;20264;-78
2024/04/21 00:41:33;;;;;;;3.40;2.80;;;3.00;99.90;;;;;;5361927;26;20291;-78
2024/04/21 00:43:59;;;;;;;3.57;2.77;;;2.90;99.90;;;;;;5358629;26;20284;-78
2024/04/21 00:46:25;;;;;;;4.27;2.90;;;2.90;99.90;;;;;;5361875;26;20241;-78
2024/04/21 00:48:52;;;;;;;4.57;3.20;;;3.10;99.90;;;;;;5351362;26;20232;-78
2024/04/21 00:51:22;;;;;;;6.37;3.73;;;2.90;99.90;;;;;;5352860;26;20730;-78
2024/04/21 00:53:50;;;;;;;7.63;3.67;;;2.90;99.90;;;;;;5352831;26;20240;-78
2024/04/21 00:56:19;;;;;;;6.03;3.40;;;2.80;99.90;;;;;;5363415;26;20283;-78
2024/04/21 00:58:45;;;;;;;3.40;2.80;;;2.70;99.90;;;;;;5366423;26;20232;-78
2024/04/21 01:01:11;;;;;;;9.03;5.53;;;2.70;99.90;;;;;;5373979;26;20228;-78
2024/04/21 01:03:36;;;;;;;4.67;3.40;;;2.60;99.90;;;;;;5370827;26;20244;-78
2024/04/21 01:06:02;;;;;;;4.20;3.30;;;2.70;99.90;;;;;;5337874;26;20279;-78
2024/04/21 01:08:29;;;;;;;4.17;3.60;;;2.60;99.90;;;;;;5335866;26;20245;-78
2024/04/21 01:10:55;;;;;;;12.47;4.03;;;2.60;99.90;;;;;;5338664;26;20229;-78
2024/04/21 01:13:20;;;;;;;4.60;4.10;;;2.60;99.90;;;;;;5346441;26;20750;-78
2024/04/21 01:15:52;;;;;;;12.73;4.53;;;2.60;99.90;;;;;;5360027;26;20606;-78
2024/04/21 01:18:18;;;;;;;6.37;4.40;;;2.60;99.90;;;;;;5344329;26;20277;-78
2024/04/21 01:20:45;;;;;;;6.87;4.70;;;2.50;99.90;;;;;;5370226;26;20243;-78
2024/04/21 01:23:18;;;;;;;8.67;5.70;;;2.60;99.90;;;;;;5357680;26;20278;-78
2024/04/21 01:25:47;;;;;;;5.33;4.40;;;2.60;99.90;;;;;;5357994;26;20337;-78
2024/04/21 01:28:13;;;;;;;6.17;4.00;;;2.60;99.90;;;;;;5335702;26;20334;-78
2024/04/21 01:30:38;;;;;;;4.50;3.87;;;2.60;99.90;;;;;;5336032;26;20829;-78
2024/04/21 01:33:04;;;;;;;5.30;3.90;;;2.60;99.90;;;;;;5351682;26;20267;-78
2024/04/21 01:35:32;;;;;;;5.13;4.03;;;2.60;99.90;;;;;;5351811;26;20330;-78
2024/04/21 01:37:58;;;;;;;5.57;3.83;;;2.60;99.90;;;;;;5351050;26;20731;-78
2024/04/21 01:40:23;;;;;;;5.67;4.50;;;2.60;99.90;;;;;;5347768;26;20232;-78
2024/04/21 01:42:49;;;;;;;4.17;3.53;;;2.70;99.90;;;;;;5341591;26;20271;-78
2024/04/21 01:45:15;;;;;;;4.90;4.20;;;2.60;99.90;;;;;;5371087;26;20291;-78
2024/04/21 01:47:40;;;;;;;5.47;3.97;;;2.60;99.90;;;;;;5359325;26;20284;-78
2024/04/21 01:50:07;;;;;;;6.20;4.20;;;2.60;99.90;;;;;;5336836;26;20260;-78
2024/04/21 01:52:33;;;;;;;4.87;4.00;;;2.60;99.90;;;;;;5350394;26;20721;-78
2024/04/21 01:54:58;;;;;;;5.13;3.90;;;2.60;99.90;;;;;;5340424;26;20283;-78
2024/04/21 01:57:24;;;;;;;4.90;3.80;;;2.60;99.90;;;;;;5356038;26;20460;-78
2024/04/21 01:59:49;;;;;;;6.17;4.80;;;2.60;99.90;;;;;;5356897;26;20758;-78
2024/04/21 02:02:15;;;;;;;4.40;4.00;;;2.50;99.90;;;;;;5349583;26;20276;-78
2024/04/21 02:04:41;;;;;;;5.57;4.30;;;2.50;99.90;;;;;;5337876;26;20598;-78
2024/04/21 02:07:09;;;;;;;5.23;4.47;;;2.50;99.90;;;;;;5372495;26;20271;-78
2024/04/21 02:09:36;;;;;;;5.13;4.00;;;2.50;99.90;;;;;;5358724;26;20525;-78
2024/04/21 02:12:02;;;;;;;6.10;4.07;;;2.50;99.90;;;;;;5350533;26;20582;-78
2024/04/21 02:14:27;;;;;;;5.20;3.90;;;2.50;99.90;;;;;;5352234;26;20245;-78
2024/04/21 02:20:23;;;;;;;10.30;4.37;;;2.50;99.90;;;;;;5361941;26;20928;-78
2024/04/21 02:22:48;;;;;;;7.70;4.43;;;2.60;99.90;;;;;;5356491;26;20244;-78
2024/04/21 02:25:16;;;;;;;7.57;5.30;;;2.60;99.90;;;;;;5356301;26;20686;-78
2024/04/21 02:27:42;;;;;;;6.33;4.80;;;2.50;99.90;;;;;;5356833;26;20244;-78
2024/04/21 02:30:08;;;;;;;13.57;5.20;;;2.50;99.90;;;;;;5337552;26;20773;-78
2024/04/21 02:32:33;;;;;;;7.83;5.10;;;2.30;99.90;;;;;;5363356;26;20597;-78
2024/04/21 02:34:59;;;;;;;21.90;5.03;;;2.40;99.90;;;;;;5340319;26;20320;-78
2024/04/21 02:37:24;;;;;;;13.37;5.00;;;2.30;99.90;;;;;;5347201;26;20237;-78
2024/04/21 02:39:50;;;;;;;28.17;5.03;;;2.30;99.90;;;;;;5352084;26;20275;-78
2024/04/21 02:42:16;;;;;;;11.33;4.63;;;2.30;99.90;;;;;;5351500;26;20280;-78
2024/04/21 02:44:41;;;;;;;23.57;4.50;;;2.10;99.90;;;;;;5337071;26;20240;-78
2024/04/21 02:47:07;;;;;;;5.77;3.83;;;2.10;99.90;;;;;;5334700;26;20260;-78
2024/04/21 02:49:33;;;;;;;19.77;3.97;;;2.20;99.90;;;;;;5361462;26;20267;-78
2024/04/21 02:51:58;;;;;;;9.83;3.70;;;2.10;99.90;;;;;;5371247;26;20315;-78
2024/04/21 02:54:26;;;;;;;34.77;5.00;;;2.10;99.90;;;;;;5345468;26;20245;-78
2024/04/21 02:56:52;;;;;;;18.27;3.53;;;2.10;99.90;;;;;;5349374;26;20248;-78
2024/04/21 02:59:18;;;;;;;10.67;2.93;;;2.10;99.90;;;;;;5342163;26;20677;-78
2024/04/21 03:01:46;;;;;;;6.73;3.10;;;2.20;99.90;;;;;;5369017;26;20233;-78
2024/04/21 03:04:11;;;;;;;8.40;3.10;;;2.30;99.90;;;;;;5364195;26;20245;-78
2024/04/21 03:07:05;;;;;;;3.60;2.93;;;2.30;99.90;;;;;;5350988;26;21005;-78
2024/04/21 03:09:31;;;;;;;9.40;3.00;;;2.40;99.90;;;;;;5349319;26;20735;-78
2024/04/21 03:11:56;;;;;;;4.33;2.90;;;2.50;99.90;;;;;;5364425;26;20247;-78
2024/04/21 03:14:22;;;;;;;7.10;2.77;;;2.40;99.90;;;;;;5344552;26;20248;-78
2024/04/21 03:16:48;;;;;;;5.77;2.90;;;2.30;99.90;;;;;;5356328;26;20594;-78
2024/04/21 03:19:14;;;;;;;5.27;2.73;;;2.20;99.90;;;;;;5355613;26;20229;-78
2024/04/21 03:21:39;;;;;;;3.27;2.80;;;2.20;99.90;;;;;;5368948;26;20282;-78
2024/04/21 03:24:05;;;;;;;3.47;2.90;;;2.20;99.90;;;;;;5353347;26;20249;-78
2024/04/21 03:26:31;;;;;;;3.47;2.67;;;2.10;99.90;;;;;;5320217;26;20263;-78
2024/04/21 03:32:18;;;;;;;4.30;2.90;;;1.80;99.90;;;;;;5338698;26;20275;-78
2024/04/21 03:34:45;;;;;;;3.87;3.00;;;1.70;99.90;;;;;;5375821;26;20236;-78
2024/04/21 03:37:11;;;;;;;3.37;2.80;;;1.60;99.90;;;;;;5376028;26;20286;-78
2024/04/21 03:39:37;;;;;;;4.07;2.80;;;1.60;99.90;;;;;;5331110;26;20773;-78
2024/04/21 03:42:03;;;;;;;3.93;2.93;;;1.60;99.90;;;;;;5375503;26;20412;-78
2024/04/21 03:44:28;;;;;;;4.00;3.03;;;1.60;99.90;;;;;;5359482;26;20349;-78
2024/04/21 03:46:54;;;;;;;3.30;2.97;;;1.50;99.90;;;;;;5359225;26;20297;-78
2024/04/21 03:49:20;;;;;;;5.77;3.17;;;1.60;99.90;;;;;;5352888;26;20363;-78
2024/04/21 03:51:45;;;;;;;4.33;3.20;;;1.60;99.90;;;;;;5352809;26;20271;-78
2024/04/21 03:54:11;;;;;;;3.37;2.70;;;1.60;99.90;;;;;;5353444;26;20735;-78
2024/04/21 03:56:37;;;;;;;4.47;2.80;;;1.70;99.90;;;;;;5367137;26;20282;-78
2024/04/21 03:59:03;;;;;;;3.70;2.70;;;1.70;99.90;;;;;;5355047;26;20251;-78
2024/04/21 04:01:28;;;;;;;4.17;3.00;;;1.70;99.90;;;;;;5354959;26;20233;-78
2024/04/21 04:03:54;;;;;;;2.90;2.60;;;1.60;99.90;;;;;;5351710;26;20280;-78
2024/04/21 04:06:21;;;;;;;4.33;2.80;;;1.70;99.90;;;;;;5354893;26;20738;-78
2024/04/21 04:08:47;;;;;;;3.00;2.70;;;1.70;99.90;;;;;;5355296;26;20314;-78
2024/04/21 04:11:12;;;;;;;3.80;3.00;;;1.60;99.90;;;;;;5362232;26;20232;-78
2024/04/21 04:13:38;;;;;;;4.90;3.20;;;1.60;99.90;;;;;;5346973;26;20259;-78
2024/04/21 04:16:04;;;;;;;7.37;3.00;;;1.50;99.90;;;;;;5365269;26;20292;-78
2024/04/21 04:18:29;;;;;;;3.67;2.97;;;1.60;99.90;;;;;;5347933;26;20720;-78
2024/04/21 04:20:55;;;;;;;4.20;2.80;;;1.60;99.90;;;;;;5362345;26;20279;-78
2024/04/21 04:23:21;;;;;;;2.60;2.40;;;1.60;99.90;;;;;;5351386;26;21171;-78
2024/04/21 04:25:46;;;;;;;3.80;3.10;;;1.50;99.90;;;;;;5367362;26;20240;-77
2024/04/21 04:28:12;;;;;;;3.90;3.00;;;1.50;99.90;;;;;;5343264;26;20252;-78
2024/04/21 04:30:38;;;;;;;3.87;2.87;;;1.60;99.90;;;;;;5358301;26;20263;-77
2024/04/21 04:33:04;;;;;;;3.73;3.03;;;1.60;99.90;;;;;;5346406;26;20672;-78
2024/04/21 04:35:29;;;;;;;5.40;3.03;;;1.60;99.90;;;;;;5373993;26;20296;-78
2024/04/21 04:37:55;;;;;;;4.77;3.10;;;1.60;99.90;;;;;;5359689;26;20270;-78
2024/04/21 04:40:21;;;;;;;4.23;2.93;;;1.50;99.90;;;;;;5348813;26;20750;-77
2024/04/21 04:42:48;;;;;;;3.40;2.90;;;1.60;99.90;;;;;;5350777;26;20287;-77
2024/04/21 04:45:15;;;;;;;4.07;3.10;;;1.60;99.90;;;;;;5359169;26;20240;-78
2024/04/21 04:51:03;;;;;;;5.63;3.20;;;1.70;99.90;;;;;;5367560;26;20262;-77
2024/04/21 04:53:28;;;;;;;3.80;3.03;;;1.70;99.90;;;;;;5336616;26;20253;-78
2024/04/21 04:55:55;;;;;;;4.50;3.30;;;1.60;99.90;;;;;;5367415;26;20307;-78
2024/04/21 04:58:20;;;;;;;4.70;2.97;;;1.60;99.90;;;;;;5351660;26;20603;-77
2024/04/21 05:00:46;;;;;;;4.70;3.30;;;1.70;99.90;;;;;;5367623;26;20232;-77
2024/04/21 05:03:12;;;;;;;3.60;2.93;;;1.60;99.90;;;;;;5362574;26;20319;-78
2024/04/21 05:05:37;;;;;;;4.87;3.50;;;1.70;99.90;;;;;;5358484;26;20276;-78
2024/04/21 05:08:04;;;;;;;5.17;3.50;;;1.70;99.90;;;;;;5367002;26;20245;-78
2024/04/21 05:10:30;;;;;;;6.07;3.43;;;1.70;99.90;;;;;;5352015;26;20237;-78
2024/04/21 05:12:56;;;;;;;5.03;3.33;;;1.80;99.90;;;;;;5372534;26;20266;-78
2024/04/21 05:15:21;;;;;;;6.70;3.47;;;1.90;99.90;;;;;;5362358;26;20232;-78
2024/04/21 05:17:47;;;;;;;4.73;3.57;;;2.00;99.90;;;;;;5357986;26;20267;-78
2024/04/21 05:20:13;;;;;;;4.87;3.40;;;2.10;99.90;;;;;;5351511;26;20338;-78
2024/04/21 05:22:39;;;;;;;4.77;3.43;;;2.20;99.90;;;;;;5365082;26;20244;-78
2024/04/21 05:25:05;;;;;;;5.77;3.77;;;2.20;99.90;;;;;;5352614;26;20272;-79
2024/04/21 05:27:30;;;;;;;4.53;3.50;;;2.30;99.90;;;;;;5361446;26;20337;-78
2024/04/21 05:29:56;;;;;;;4.47;3.20;;;2.30;99.90;;;;;;5360376;26;20230;-78
2024/04/21 05:32:22;;;;;;;4.83;3.53;;;2.40;99.90;;;;;;5348036;26;20229;-78
2024/04/21 05:34:47;;;;;;;5.33;3.60;;;2.50;99.90;;;;;;5365792;26;20244;-79
2024/04/21 05:37:13;;;;;;;5.33;3.60;;;2.50;99.90;;;;;;5372783;26;20341;-78
2024/04/21 05:39:39;;;;;;;4.63;3.20;;;2.60;99.90;;;;;;5343694;26;20710;-79
2024/04/21 05:42:05;;;;;;;4.20;2.87;;;2.60;99.90;;;;;;5342831;26;20275;-78
2024/04/21 05:44:31;;;;;;;4.37;3.67;;;2.60;99.90;;;;;;5359603;26;20281;-79
2024/04/21 05:46:56;;;;;;;5.13;3.43;;;2.70;99.90;;;;;;5350670;26;20235;-78
2024/04/21 05:49:22;;;;;;;5.17;3.37;;;2.80;99.90;;;;;;5370208;26;20236;-78
2024/04/21 05:51:48;;;;;;;3.93;3.40;;;2.90;99.90;;;;;;5342911;26;20333;-78
2024/04/21 05:54:14;;;;;;;3.70;3.00;;;3.00;99.90;;;;;;5345280;26;20233;-78
2024/04/21 05:56:40;;;;;;;5.60;3.73;;;3.00;99.90;;;;;;5370470;26;20296;-79
2024/04/21 05:59:06;;;;;;;4.00;3.40;;;3.10;99.90;;;;;;5364178;26;20237;-79
2024/04/21 06:01:32;;;;;;;10.27;3.70;;;3.00;99.90;;;;;;5333104;26;20312;-78
2024/04/21 06:03:57;;;;;;;4.33;3.70;;;3.10;99.90;;;;;;5359838;26;20342;-78
2024/04/21 06:06:23;;;;;;;5.87;3.73;;;3.10;99.90;;;;;;5330920;26;20553;-78
2024/04/21 06:08:49;;;;;;;5.90;3.70;;;3.10;99.90;;;;;;5340223;26;20244;-78
2024/04/21 06:11:15;;;;;;;8.70;3.87;;;3.20;99.90;;;;;;5333134;26;20237;-78
2024/04/21 06:13:41;;;;;;;4.07;3.17;;;3.20;99.90;;;;;;5329300;26;20231;-78
2024/04/21 06:16:06;;;;;;;5.77;3.80;;;3.40;99.90;;;;;;5325323;26;20781;-78
2024/04/21 06:18:32;;;;;;;5.73;3.70;;;3.40;99.90;;;;;;5322433;26;20237;-78
2024/04/21 06:20:57;;;;;;;6.53;3.83;;;3.50;99.90;;;;;;5339643;26;20605;-78
2024/04/21 06:23:23;;;;;;;5.03;3.93;;;3.40;99.90;;;;;;5323883;26;20344;-78
2024/04/21 06:25:49;;;;;;;4.20;3.50;;;3.50;99.90;;;;;;5335211;26;20711;-78
2024/04/21 06:28:16;;;;;;;5.30;3.70;;;3.60;99.90;;;;;;5360106;26;20267;-78
2024/04/21 06:30:42;;;;;;;7.07;4.27;;;3.90;99.90;;;;;;5346957;26;20278;-78
2024/04/21 06:33:07;;;;;;;5.87;4.10;;;4.00;99.90;;;;;;5354768;26;20562;-78
2024/04/21 06:35:34;;;;;;;4.70;3.27;;;4.30;99.90;;;;;;5348546;26;20275;-78
2024/04/21 06:37:59;;;;;;;5.80;3.57;;;4.40;99.90;;;;;;5338738;26;20649;-78
2024/04/21 06:40:25;;;;;;;5.37;3.77;;;4.60;99.90;;;;;;5338077;26;20293;-78
2024/04/21 06:42:51;;;;;;;8.63;3.83;;;4.70;99.90;;;;;;5344372;26;20659;-78
2024/04/21 06:45:17;;;;;;;5.03;3.63;;;4.70;99.90;;;;;;5363889;26;20614;-76
2024/04/21 06:47:42;;;;;;;6.17;3.53;;;4.80;99.90;;;;;;5342737;26;20229;-78
2024/04/21 06:50:08;;;;;;;5.47;3.67;;;4.70;99.90;;;;;;5331082;26;20228;-79
2024/04/21 06:52:34;;;;;;;5.70;3.53;;;4.80;99.90;;;;;;5332118;26;20241;-79
2024/04/21 06:55:00;;;;;;;6.40;3.73;;;4.80;99.90;;;;;;5339789;26;20706;-78
2024/04/21 06:57:25;;;;;;;6.13;3.80;;;4.90;99.90;;;;;;5337882;26;20361;-79
2024/04/21 06:59:51;;;;;;;7.80;3.60;;;4.90;99.90;;;;;;5331601;26;20252;-79
2024/04/21 07:02:17;;;;;;;6.53;3.60;;;4.70;99.90;;;;;;5340818;26;20263;-79
2024/04/21 07:04:42;;;;;;;5.67;4.03;;;4.60;99.90;;;;;;5333429;26;20249;-79
2024/04/21 07:07:08;;;;;;;7.97;3.97;;;4.70;99.90;;;;;;5318408;26;20267;-78
2024/04/21 07:09:39;;;;;;;8.50;3.97;;;5.00;99.90;;;;;;5326770;26;20249;-78
2024/04/21 07:12:05;;;;;;;5.37;3.90;;;5.10;99.90;;;;;;5351335;26;20840;-78
2024/04/21 07:14:31;;;;;;;6.83;3.57;;;5.30;99.90;;;;;;5326855;26;20234;-78
2024/04/21 07:16:57;;;;;;;6.43;4.00;;;5.40;99.90;;;;;;5326576;26;20281;-78
2024/04/21 07:19:23;;;;;;;5.17;3.83;;;5.50;99.90;;;;;;5338522;26;20237;-78
2024/04/21 07:21:48;;;;;;;7.63;3.80;;;5.70;99.90;;;;;;5337453;26;20233;-78
2024/04/21 07:24:14;;;;;;;6.00;3.77;;;5.80;99.90;;;;;;5359123;26;20599;-78
2024/04/21 07:26:40;;;;;;;5.10;3.70;;;5.90;99.90;;;;;;5335282;26;21031;-79
2024/04/21 07:29:06;;;;;;;8.33;3.93;;;5.80;99.90;;;;;;5355629;26;20276;-78
2024/04/21 07:31:32;;;;;;;5.63;3.40;;;5.90;99.90;;;;;;5340093;26;20276;-78
2024/04/21 07:33:58;;;;;;;6.37;3.50;;;6.00;99.90;;;;;;5352779;26;20241;-79
2024/04/21 07:36:23;;;;;;;5.00;3.70;;;6.20;99.90;;;;;;5347958;26;20236;-78
2024/04/21 07:38:52;;;;;;;8.07;3.87;;;6.40;99.90;;;;;;5342769;26;20768;-78
2024/04/21 07:41:19;;;;;;;5.50;3.80;;;6.40;99.90;;;;;;5376079;26;20233;-79
2024/04/21 07:43:44;;;;;;;4.80;3.37;;;6.50;99.90;;;;;;5375768;26;20333;-78
2024/04/21 07:46:10;;;;;;;7.30;3.53;;;6.80;99.90;;;;;;5373593;26;20248;-79
2024/04/21 07:48:36;;;;;;;6.13;3.27;;;6.90;99.90;;;;;;5372466;26;20241;-79
2024/04/21 07:51:02;;;;;;;6.63;3.50;;;7.00;99.90;;;;;;5338318;26;20230;-79
2024/04/21 07:53:27;;;;;;;4.27;3.10;;;7.00;99.90;;;;;;5338598;26;20237;-79
2024/04/21 07:55:53;;;;;;;6.87;3.43;;;7.10;99.90;;;;;;5337034;26;20242;-78
2024/04/21 07:58:19;;;;;;;4.50;3.40;;;7.00;99.90;;;;;;5337965;26;20233;-78
2024/04/21 08:00:44;;;;;;;5.40;3.50;;;7.10;99.90;;;;;;5308024;26;20255;-79
2024/04/21 08:03:10;;;;;;;4.97;3.00;;;7.00;99.90;;;;;;5356248;26;20262;-78
2024/04/21 08:05:36;;;;;;;5.03;3.07;;;6.90;99.90;;;;;;5373699;26;20275;-78
2024/04/21 08:08:02;;;;;;;6.93;3.00;;;6.80;99.90;;;;;;5337503;26;20340;-79
2024/04/21 08:10:28;;;;;;;5.33;3.37;;;7.00;99.90;;;;;;5361872;26;20283;-79
2024/04/21 08:12:54;;;;;;;3.57;2.80;;;7.10;99.90;;;;;;5372446;26;20279;-78
2024/04/21 08:15:19;;;;;;;3.93;2.80;;;7.20;99.90;;;;;;5360778;26;20471;-78
2024/04/21 08:17:45;;;;;;;4.67;2.80;;;7.30;99.90;;;;;;5356870;26;20233;-78
2024/04/21 08:20:11;;;;;;;3.57;2.63;;;7.30;99.90;;;;;;5370687;26;20989;-78
2024/04/21 08:22:36;;;;;;;5.30;3.13;;;7.30;99.90;;;;;;5358922;26;20773;-78
2024/04/21 08:25:02;;;;;;;6.03;2.87;;;7.30;99.90;;;;;;5336479;26;20343;-78
2024/04/21 08:27:28;;;;;;;4.87;2.97;;;7.10;99.90;;;;;;5338362;26;20233;-78
2024/04/21 08:29:54;;;;;;;2.90;2.07;;;6.80;99.90;;;;;;5336906;26;20279;-78
2024/04/21 08:32:19;;;;;;;2.70;1.97;;;6.60;99.90;;;;;;5336178;26;20625;-78
2024/04/21 08:34:45;;;;;;;5.13;2.13;;;6.40;99.90;;;;;;5336814;26;20319;-78
2024/04/21 08:37:11;;;;;;;2.93;2.50;;;6.30;99.90;;;;;;5337830;26;20269;-78
2024/04/21 08:39:37;;;;;;;4.10;2.73;;;6.10;99.90;;;;;;5337308;26;20267;-78
2024/04/21 08:42:03;;;;;;;3.93;2.80;;;6.10;99.90;;;;;;5351221;26;20240;-78
2024/04/21 08:44:30;;;;;;;7.33;3.60;;;5.90;99.90;;;;;;5336012;26;20248;-77
2024/04/21 08:46:57;;;;;;;5.23;3.10;;;5.80;99.90;;;;;;5339158;26;20253;-78
2024/04/21 08:49:23;;;;;;;5.70;3.17;;;5.80;99.90;;;;;;5358667;26;20228;-78
2024/04/21 08:51:50;;;;;;;4.13;2.70;;;5.80;99.90;;;;;;5344590;26;20233;-78
2024/04/21 08:54:16;;;;;;;3.57;2.60;;;5.90;99.90;;;;;;5349033;26;20339;-77
2024/04/21 08:56:44;;;;;;;3.63;2.60;;;5.90;99.90;;;;;;5336853;26;20256;-78
2024/04/21 08:59:11;;;;;;;4.57;2.57;;;5.80;99.90;;;;;;5358205;26;20236;-78
2024/04/21 09:01:37;;;;;;;3.90;2.43;;;5.90;99.90;;;;;;5359182;26;20292;-78
2024/04/21 09:04:06;;;;;;;3.90;2.40;;;6.00;99.90;;;;;;5340711;26;20237;-78
2024/04/21 09:06:33;;;;;;;3.53;2.30;;;6.40;99.90;;;;;;5357659;26;20290;-78
2024/04/21 09:08:59;;;;;;;6.03;2.43;;;6.90;99.90;;;;;;5356794;26;20239;-78
2024/04/21 09:11:28;;;;;;;3.10;2.17;;;7.30;99.90;;;;;;5370884;26;20721;-78
2024/04/21 09:13:55;;;;;;;3.37;2.30;;;7.50;99.90;;;;;;5356819;26;20240;-78
2024/04/21 09:16:21;;;;;;;4.87;2.43;;;7.40;99.90;;;;;;5364430;26;20241;-78
2024/04/21 09:18:47;;;;;;;4.80;2.27;;;7.10;99.90;;;;;;5351516;26;20282;-78
2024/04/21 09:21:12;;;;;;;5.23;2.30;;;6.80;99.90;;;;;;5369264;26;20256;-78
2024/04/21 09:23:40;;;;;;;2.97;2.00;;;6.60;99.90;;;;;;5340619;26;20310;-78
2024/04/21 09:26:07;;;;;;;3.83;2.60;;;6.60;99.90;;;;;;5332920;26;20275;-79
2024/04/21 09:28:33;;;;;;;2.63;2.00;;;6.50;99.90;;;;;;5334434;26;20320;-78
2024/04/21 09:30:59;;;;;;;3.20;2.00;;;6.40;99.90;;;;;;5340188;26;20350;-78
2024/04/21 09:33:25;;;;;;;2.73;1.90;;;6.40;99.90;;;;;;5348648;26;20245;-79
2024/04/21 09:35:56;;;;;;;3.67;2.00;;;6.50;99.90;;;;;;5352197;26;20237;-79
2024/04/21 09:38:22;;;;;;;2.27;1.70;;;6.60;99.90;;;;;;5360344;26;20254;-78
2024/04/21 09:40:51;;;;;;;3.50;2.30;;;6.60;99.90;;;;;;5373756;26;20244;-78
2024/04/21 09:43:17;;;;;;;3.40;1.90;;;6.60;99.90;;;;;;5350801;26;20245;-78
2024/04/21 09:45:44;;;;;;;2.83;1.83;;;6.40;99.90;;;;;;5339737;26;20249;-78
2024/04/21 09:48:10;;;;;;;7.07;2.00;;;6.30;99.90;;;;;;5336716;26;20252;-78
